sensor_id;sensor_type;location;lat;lon;timestamp;P1;durP1;ratioP1;P2;durP2;ratioP2
59040;SDS011;44825;53.200;6.448;2023-06-05T00:00:20;7.15;;;5.13;;
59040;SDS011;44825;53.200;6.448;2023-06-05T00:02:47;8.88;;;5.13;;
59040;SDS011;44825;53.200;6.448;2023-06-05T00:05:13;7.15;;;5.45;;
59040;SDS011;44825;53.200;6.448;2023-06-05T00:07:40;8.73;;;5.00;;
59040;SDS011;44825;53.200;6.448;2023-06-05T00:10:06;6.60;;;4.68;;
59040;SDS011;44825;53.200;6.448;2023-06-05T00:12:33;10.40;;;5.70;;
59040;SDS011;44825;53.200;6.448;2023-06-05T00:14:59;8.32;;;5.32;;
59040;SDS011;44825;53.200;6.448;2023-06-05T00:17:26;7.18;;;4.35;;
59040;SDS011;44825;53.200;6.448;2023-06-05T00:19:52;7.50;;;4.20;;
59040;SDS011;44825;53.200;6.448;2023-06-05T00:22:19;7.22;;;4.25;;
59040;SDS011;44825;53.200;6.448;2023-06-05T00:24:45;11.05;;;5.00;;
59040;SDS011;44825;53.200;6.448;2023-06-05T00:27:11;7.82;;;5.10;;
59040;SDS011;44825;53.200;6.448;2023-06-05T00:29:37;7.68;;;5.13;;
59040;SDS011;44825;53.200;6.448;2023-06-05T00:32:03;6.78;;;4.03;;
59040;SDS011;44825;53.200;6.448;2023-06-05T00:34:29;8.05;;;4.28;;
59040;SDS011;44825;53.200;6.448;2023-06-05T00:36:55;8.77;;;4.45;;
59040;SDS011;44825;53.200;6.448;2023-06-05T00:39:23;6.65;;;4.43;;
59040;SDS011;44825;53.200;6.448;2023-06-05T00:41:49;6.82;;;4.00;;
59040;SDS011;44825;53.200;6.448;2023-06-05T00:44:17;6.30;;;3.92;;
59040;SDS011;44825;53.200;6.448;2023-06-05T00:46:43;10.38;;;3.90;;
59040;SDS011;44825;53.200;6.448;2023-06-05T00:49:10;7.25;;;4.35;;
59040;SDS011;44825;53.200;6.448;2023-06-05T00:51:37;7.72;;;4.28;;
59040;SDS011;44825;53.200;6.448;2023-06-05T00:54:04;8.63;;;4.05;;
59040;SDS011;44825;53.200;6.448;2023-06-05T00:56:30;6.53;;;4.15;;
59040;SDS011;44825;53.200;6.448;2023-06-05T00:58:58;7.72;;;4.30;;
59040;SDS011;44825;53.200;6.448;2023-06-05T01:01:24;6.75;;;4.13;;
59040;SDS011;44825;53.200;6.448;2023-06-05T01:03:53;7.20;;;4.25;;
59040;SDS011;44825;53.200;6.448;2023-06-05T01:06:22;7.90;;;4.40;;
59040;SDS011;44825;53.200;6.448;2023-06-05T01:08:48;8.60;;;4.75;;
59040;SDS011;44825;53.200;6.448;2023-06-05T01:13:46;8.05;;;4.60;;
59040;SDS011;44825;53.200;6.448;2023-06-05T01:16:16;9.38;;;4.38;;
59040;SDS011;44825;53.200;6.448;2023-06-05T01:18:43;8.38;;;4.90;;
59040;SDS011;44825;53.200;6.448;2023-06-05T01:21:11;8.02;;;4.80;;
59040;SDS011;44825;53.200;6.448;2023-06-05T01:23:41;9.82;;;4.50;;
59040;SDS011;44825;53.200;6.448;2023-06-05T01:26:09;8.93;;;4.85;;
59040;SDS011;44825;53.200;6.448;2023-06-05T01:28:36;8.07;;;4.93;;
59040;SDS011;44825;53.200;6.448;2023-06-05T01:31:04;7.20;;;4.50;;
59040;SDS011;44825;53.200;6.448;2023-06-05T01:36:09;8.35;;;5.22;;
59040;SDS011;44825;53.200;6.448;2023-06-05T01:38:36;9.35;;;5.25;;
59040;SDS011;44825;53.200;6.448;2023-06-05T01:41:03;8.65;;;5.07;;
59040;SDS011;44825;53.200;6.448;2023-06-05T01:43:30;10.27;;;5.15;;
59040;SDS011;44825;53.200;6.448;2023-06-05T01:45:56;8.63;;;5.47;;
59040;SDS011;44825;53.200;6.448;2023-06-05T01:48:24;7.63;;;5.18;;
59040;SDS011;44825;53.200;6.448;2023-06-05T01:50:56;10.98;;;5.50;;
59040;SDS011;44825;53.200;6.448;2023-06-05T01:53:22;8.43;;;5.40;;
59040;SDS011;44825;53.200;6.448;2023-06-05T01:55:48;12.18;;;6.05;;
59040;SDS011;44825;53.200;6.448;2023-06-05T01:58:17;11.73;;;6.20;;
59040;SDS011;44825;53.200;6.448;2023-06-05T02:00:43;8.93;;;5.55;;
59040;SDS011;44825;53.200;6.448;2023-06-05T02:03:10;9.40;;;6.22;;
59040;SDS011;44825;53.200;6.448;2023-06-05T02:05:36;11.18;;;6.68;;
59040;SDS011;44825;53.200;6.448;2023-06-05T02:08:03;11.02;;;6.50;;
59040;SDS011;44825;53.200;6.448;2023-06-05T02:10:30;10.40;;;6.72;;
59040;SDS011;44825;53.200;6.448;2023-06-05T02:12:56;10.18;;;6.72;;
59040;SDS011;44825;53.200;6.448;2023-06-05T02:15:22;10.93;;;6.53;;
59040;SDS011;44825;53.200;6.448;2023-06-05T02:17:49;10.88;;;6.63;;
59040;SDS011;44825;53.200;6.448;2023-06-05T02:20:23;11.43;;;5.80;;
59040;SDS011;44825;53.200;6.448;2023-06-05T02:22:49;10.68;;;6.25;;
59040;SDS011;44825;53.200;6.448;2023-06-05T02:25:17;9.15;;;6.63;;
59040;SDS011;44825;53.200;6.448;2023-06-05T02:27:43;10.52;;;6.20;;
59040;SDS011;44825;53.200;6.448;2023-06-05T02:30:09;10.30;;;6.45;;
59040;SDS011;44825;53.200;6.448;2023-06-05T02:32:36;10.73;;;6.00;;
59040;SDS011;44825;53.200;6.448;2023-06-05T02:35:07;9.75;;;6.13;;
59040;SDS011;44825;53.200;6.448;2023-06-05T02:37:33;9.07;;;5.80;;
59040;SDS011;44825;53.200;6.448;2023-06-05T02:40:02;9.68;;;5.95;;
59040;SDS011;44825;53.200;6.448;2023-06-05T02:42:29;7.13;;;5.20;;
59040;SDS011;44825;53.200;6.448;2023-06-05T02:44:55;8.18;;;5.68;;
59040;SDS011;44825;53.200;6.448;2023-06-05T02:47:21;10.30;;;6.05;;
59040;SDS011;44825;53.200;6.448;2023-06-05T02:49:47;8.55;;;5.68;;
59040;SDS011;44825;53.200;6.448;2023-06-05T02:52:13;8.20;;;5.85;;
59040;SDS011;44825;53.200;6.448;2023-06-05T02:54:39;9.07;;;6.07;;
59040;SDS011;44825;53.200;6.448;2023-06-05T02:57:05;10.95;;;6.25;;
59040;SDS011;44825;53.200;6.448;2023-06-05T02:59:33;9.55;;;6.22;;
59040;SDS011;44825;53.200;6.448;2023-06-05T03:02:04;9.38;;;5.95;;
59040;SDS011;44825;53.200;6.448;2023-06-05T03:04:31;9.05;;;5.60;;
59040;SDS011;44825;53.200;6.448;2023-06-05T03:06:57;8.77;;;5.75;;
59040;SDS011;44825;53.200;6.448;2023-06-05T03:09:24;10.05;;;5.97;;
59040;SDS011;44825;53.200;6.448;2023-06-05T03:11:50;8.23;;;5.57;;
59040;SDS011;44825;53.200;6.448;2023-06-05T03:14:17;8.95;;;5.85;;
59040;SDS011;44825;53.200;6.448;2023-06-05T03:16:43;9.50;;;5.65;;
59040;SDS011;44825;53.200;6.448;2023-06-05T03:19:10;8.85;;;5.65;;
59040;SDS011;44825;53.200;6.448;2023-06-05T03:21:37;9.68;;;5.55;;
59040;SDS011;44825;53.200;6.448;2023-06-05T03:24:06;7.43;;;4.97;;
59040;SDS011;44825;53.200;6.448;2023-06-05T03:26:32;7.97;;;4.72;;
59040;SDS011;44825;53.200;6.448;2023-06-05T03:28:59;6.72;;;4.38;;
59040;SDS011;44825;53.200;6.448;2023-06-05T03:31:25;7.18;;;4.13;;
59040;SDS011;44825;53.200;6.448;2023-06-05T03:33:51;8.43;;;3.92;;
59040;SDS011;44825;53.200;6.448;2023-06-05T03:36:17;5.97;;;3.72;;
59040;SDS011;44825;53.200;6.448;2023-06-05T03:38:43;7.78;;;3.70;;
59040;SDS011;44825;53.200;6.448;2023-06-05T03:41:10;6.88;;;4.05;;
59040;SDS011;44825;53.200;6.448;2023-06-05T03:43:36;6.28;;;3.67;;
59040;SDS011;44825;53.200;6.448;2023-06-05T03:46:03;9.18;;;4.63;;
59040;SDS011;44825;53.200;6.448;2023-06-05T03:48:29;5.63;;;3.45;;
59040;SDS011;44825;53.200;6.448;2023-06-05T03:50:55;6.38;;;3.55;;
59040;SDS011;44825;53.200;6.448;2023-06-05T03:53:22;6.85;;;4.10;;
59040;SDS011;44825;53.200;6.448;2023-06-05T03:55:49;6.07;;;3.92;;
59040;SDS011;44825;53.200;6.448;2023-06-05T03:58:18;6.55;;;3.85;;
59040;SDS011;44825;53.200;6.448;2023-06-05T04:00:45;5.65;;;3.45;;
59040;SDS011;44825;53.200;6.448;2023-06-05T04:03:11;7.03;;;3.53;;
59040;SDS011;44825;53.200;6.448;2023-06-05T04:05:38;5.90;;;3.75;;
59040;SDS011;44825;53.200;6.448;2023-06-05T04:08:05;6.95;;;3.33;;
59040;SDS011;44825;53.200;6.448;2023-06-05T04:10:31;6.13;;;3.65;;
59040;SDS011;44825;53.200;6.448;2023-06-05T04:12:57;5.80;;;3.17;;
59040;SDS011;44825;53.200;6.448;2023-06-05T04:15:24;6.00;;;3.78;;
59040;SDS011;44825;53.200;6.448;2023-06-05T04:17:50;6.50;;;3.28;;
59040;SDS011;44825;53.200;6.448;2023-06-05T04:20:17;5.38;;;3.17;;
59040;SDS011;44825;53.200;6.448;2023-06-05T04:22:43;5.40;;;2.90;;
59040;SDS011;44825;53.200;6.448;2023-06-05T04:25:10;4.53;;;2.40;;
59040;SDS011;44825;53.200;6.448;2023-06-05T04:27:40;4.53;;;2.20;;
59040;SDS011;44825;53.200;6.448;2023-06-05T04:30:08;4.38;;;2.10;;
59040;SDS011;44825;53.200;6.448;2023-06-05T04:32:35;4.60;;;2.10;;
59040;SDS011;44825;53.200;6.448;2023-06-05T04:35:07;3.53;;;1.75;;
59040;SDS011;44825;53.200;6.448;2023-06-05T04:37:34;4.53;;;2.30;;
59040;SDS011;44825;53.200;6.448;2023-06-05T04:40:01;4.10;;;1.98;;
59040;SDS011;44825;53.200;6.448;2023-06-05T04:42:34;3.83;;;2.38;;
59040;SDS011;44825;53.200;6.448;2023-06-05T04:45:01;3.97;;;2.10;;
59040;SDS011;44825;53.200;6.448;2023-06-05T04:47:28;5.43;;;2.28;;
59040;SDS011;44825;53.200;6.448;2023-06-05T04:49:57;4.18;;;2.17;;
59040;SDS011;44825;53.200;6.448;2023-06-05T04:52:23;3.38;;;2.13;;
59040;SDS011;44825;53.200;6.448;2023-06-05T04:54:49;4.57;;;2.20;;
59040;SDS011;44825;53.200;6.448;2023-06-05T04:57:16;4.82;;;2.72;;
59040;SDS011;44825;53.200;6.448;2023-06-05T04:59:43;4.45;;;2.25;;
59040;SDS011;44825;53.200;6.448;2023-06-05T05:02:10;4.38;;;2.40;;
59040;SDS011;44825;53.200;6.448;2023-06-05T05:04:36;3.58;;;2.10;;
59040;SDS011;44825;53.200;6.448;2023-06-05T05:07:02;5.63;;;2.13;;
59040;SDS011;44825;53.200;6.448;2023-06-05T05:09:29;4.55;;;2.00;;
59040;SDS011;44825;53.200;6.448;2023-06-05T05:11:56;4.97;;;2.00;;
59040;SDS011;44825;53.200;6.448;2023-06-05T05:14:23;4.30;;;1.73;;
59040;SDS011;44825;53.200;6.448;2023-06-05T05:16:49;6.53;;;2.35;;
59040;SDS011;44825;53.200;6.448;2023-06-05T05:19:15;4.57;;;2.17;;
59040;SDS011;44825;53.200;6.448;2023-06-05T05:21:41;5.50;;;2.15;;
59040;SDS011;44825;53.200;6.448;2023-06-05T05:24:07;5.53;;;1.70;;
59040;SDS011;44825;53.200;6.448;2023-06-05T05:26:34;5.57;;;2.30;;
59040;SDS011;44825;53.200;6.448;2023-06-05T05:29:00;5.93;;;2.38;;
59040;SDS011;44825;53.200;6.448;2023-06-05T05:31:26;5.53;;;2.10;;
59040;SDS011;44825;53.200;6.448;2023-06-05T05:33:54;5.95;;;2.40;;
59040;SDS011;44825;53.200;6.448;2023-06-05T05:36:20;3.83;;;1.90;;
59040;SDS011;44825;53.200;6.448;2023-06-05T05:38:46;4.90;;;1.95;;
59040;SDS011;44825;53.200;6.448;2023-06-05T05:41:12;2.75;;;1.20;;
59040;SDS011;44825;53.200;6.448;2023-06-05T05:43:38;4.20;;;1.48;;
59040;SDS011;44825;53.200;6.448;2023-06-05T05:46:04;4.18;;;1.83;;
59040;SDS011;44825;53.200;6.448;2023-06-05T05:48:30;5.13;;;2.03;;
59040;SDS011;44825;53.200;6.448;2023-06-05T05:50:57;5.10;;;1.85;;
59040;SDS011;44825;53.200;6.448;2023-06-05T05:53:23;3.38;;;1.80;;
59040;SDS011;44825;53.200;6.448;2023-06-05T05:55:49;4.20;;;2.15;;
59040;SDS011;44825;53.200;6.448;2023-06-05T05:58:15;2.90;;;1.67;;
59040;SDS011;44825;53.200;6.448;2023-06-05T06:00:41;4.50;;;1.85;;
59040;SDS011;44825;53.200;6.448;2023-06-05T06:03:08;6.00;;;2.50;;
59040;SDS011;44825;53.200;6.448;2023-06-05T06:05:34;4.47;;;1.92;;
59040;SDS011;44825;53.200;6.448;2023-06-05T06:08:01;4.32;;;1.73;;
59040;SDS011;44825;53.200;6.448;2023-06-05T06:10:28;3.75;;;2.20;;
59040;SDS011;44825;53.200;6.448;2023-06-05T06:12:55;5.25;;;2.00;;
59040;SDS011;44825;53.200;6.448;2023-06-05T06:15:21;5.78;;;2.53;;
59040;SDS011;44825;53.200;6.448;2023-06-05T06:17:47;4.20;;;2.40;;
59040;SDS011;44825;53.200;6.448;2023-06-05T06:20:13;7.53;;;2.55;;
59040;SDS011;44825;53.200;6.448;2023-06-05T06:22:41;4.50;;;2.20;;
59040;SDS011;44825;53.200;6.448;2023-06-05T06:25:07;8.77;;;2.60;;
59040;SDS011;44825;53.200;6.448;2023-06-05T06:27:35;5.93;;;2.45;;
59040;SDS011;44825;53.200;6.448;2023-06-05T06:30:02;5.00;;;2.30;;
59040;SDS011;44825;53.200;6.448;2023-06-05T06:32:29;4.78;;;2.30;;
59040;SDS011;44825;53.200;6.448;2023-06-05T06:34:55;3.25;;;1.70;;
59040;SDS011;44825;53.200;6.448;2023-06-05T06:37:21;5.53;;;2.17;;
59040;SDS011;44825;53.200;6.448;2023-06-05T06:39:47;6.97;;;2.80;;
59040;SDS011;44825;53.200;6.448;2023-06-05T06:42:14;5.05;;;2.25;;
59040;SDS011;44825;53.200;6.448;2023-06-05T06:44:40;5.25;;;2.42;;
59040;SDS011;44825;53.200;6.448;2023-06-05T06:47:06;5.38;;;2.28;;
59040;SDS011;44825;53.200;6.448;2023-06-05T06:49:33;4.43;;;2.08;;
59040;SDS011;44825;53.200;6.448;2023-06-05T06:52:03;5.10;;;2.35;;
59040;SDS011;44825;53.200;6.448;2023-06-05T06:54:29;4.40;;;2.17;;
59040;SDS011;44825;53.200;6.448;2023-06-05T06:56:56;6.03;;;2.42;;
59040;SDS011;44825;53.200;6.448;2023-06-05T06:59:22;4.35;;;2.05;;
59040;SDS011;44825;53.200;6.448;2023-06-05T07:02:07;5.38;;;2.10;;
59040;SDS011;44825;53.200;6.448;2023-06-05T07:04:34;5.40;;;2.25;;
59040;SDS011;44825;53.200;6.448;2023-06-05T07:07:00;4.22;;;2.17;;
59040;SDS011;44825;53.200;6.448;2023-06-05T07:09:26;5.18;;;2.67;;
59040;SDS011;44825;53.200;6.448;2023-06-05T07:11:55;5.32;;;2.72;;
59040;SDS011;44825;53.200;6.448;2023-06-05T07:14:22;4.57;;;2.40;;
59040;SDS011;44825;53.200;6.448;2023-06-05T07:16:48;4.50;;;2.40;;
59040;SDS011;44825;53.200;6.448;2023-06-05T07:19:16;4.20;;;2.20;;
59040;SDS011;44825;53.200;6.448;2023-06-05T07:21:42;5.10;;;2.20;;
59040;SDS011;44825;53.200;6.448;2023-06-05T07:24:08;5.28;;;2.10;;
59040;SDS011;44825;53.200;6.448;2023-06-05T07:26:35;5.50;;;2.65;;
59040;SDS011;44825;53.200;6.448;2023-06-05T07:29:01;6.03;;;2.40;;
59040;SDS011;44825;53.200;6.448;2023-06-05T07:31:27;4.93;;;2.45;;
59040;SDS011;44825;53.200;6.448;2023-06-05T07:33:55;4.35;;;2.50;;
59040;SDS011;44825;53.200;6.448;2023-06-05T07:36:21;4.93;;;2.40;;
59040;SDS011;44825;53.200;6.448;2023-06-05T07:38:47;5.28;;;2.67;;
59040;SDS011;44825;53.200;6.448;2023-06-05T07:41:14;5.03;;;2.40;;
59040;SDS011;44825;53.200;6.448;2023-06-05T07:43:40;5.20;;;3.00;;
59040;SDS011;44825;53.200;6.448;2023-06-05T07:46:07;5.43;;;2.80;;
59040;SDS011;44825;53.200;6.448;2023-06-05T07:48:34;4.65;;;2.05;;
59040;SDS011;44825;53.200;6.448;2023-06-05T07:51:00;5.20;;;2.47;;
59040;SDS011;44825;53.200;6.448;2023-06-05T07:53:26;6.28;;;2.40;;
59040;SDS011;44825;53.200;6.448;2023-06-05T07:55:52;6.43;;;2.15;;
59040;SDS011;44825;53.200;6.448;2023-06-05T07:58:18;4.95;;;2.40;;
59040;SDS011;44825;53.200;6.448;2023-06-05T08:00:45;4.03;;;2.05;;
59040;SDS011;44825;53.200;6.448;2023-06-05T08:03:16;3.80;;;2.30;;
59040;SDS011;44825;53.200;6.448;2023-06-05T08:05:51;4.25;;;2.10;;
59040;SDS011;44825;53.200;6.448;2023-06-05T08:08:17;4.50;;;2.03;;
59040;SDS011;44825;53.200;6.448;2023-06-05T08:10:44;3.50;;;1.98;;
59040;SDS011;44825;53.200;6.448;2023-06-05T08:13:10;3.60;;;1.90;;
59040;SDS011;44825;53.200;6.448;2023-06-05T08:15:36;18.25;;;3.67;;
59040;SDS011;44825;53.200;6.448;2023-06-05T08:18:02;10.68;;;2.72;;
59040;SDS011;44825;53.200;6.448;2023-06-05T08:20:29;6.30;;;2.28;;
59040;SDS011;44825;53.200;6.448;2023-06-05T08:22:55;8.75;;;2.10;;
59040;SDS011;44825;53.200;6.448;2023-06-05T08:25:24;8.60;;;2.28;;
59040;SDS011;44825;53.200;6.448;2023-06-05T08:27:51;6.35;;;2.17;;
59040;SDS011;44825;53.200;6.448;2023-06-05T08:30:17;3.35;;;1.63;;
59040;SDS011;44825;53.200;6.448;2023-06-05T08:32:43;5.13;;;2.35;;
59040;SDS011;44825;53.200;6.448;2023-06-05T08:35:09;13.52;;;3.30;;
59040;SDS011;44825;53.200;6.448;2023-06-05T08:37:37;4.45;;;2.40;;
59040;SDS011;44825;53.200;6.448;2023-06-05T08:40:03;11.00;;;2.35;;
59040;SDS011;44825;53.200;6.448;2023-06-05T08:42:31;6.35;;;2.40;;
59040;SDS011;44825;53.200;6.448;2023-06-05T08:44:57;5.85;;;2.10;;
59040;SDS011;44825;53.200;6.448;2023-06-05T08:47:23;4.03;;;2.10;;
59040;SDS011;44825;53.200;6.448;2023-06-05T08:49:52;12.10;;;2.83;;
59040;SDS011;44825;53.200;6.448;2023-06-05T08:52:19;7.50;;;2.45;;
59040;SDS011;44825;53.200;6.448;2023-06-05T08:54:47;5.88;;;2.45;;
59040;SDS011;44825;53.200;6.448;2023-06-05T08:57:13;5.38;;;2.55;;
59040;SDS011;44825;53.200;6.448;2023-06-05T08:59:39;7.32;;;2.17;;
59040;SDS011;44825;53.200;6.448;2023-06-05T09:02:06;6.10;;;2.20;;
59040;SDS011;44825;53.200;6.448;2023-06-05T09:04:32;3.13;;;2.00;;
59040;SDS011;44825;53.200;6.448;2023-06-05T09:06:59;5.18;;;2.53;;
59040;SDS011;44825;53.200;6.448;2023-06-05T09:09:25;7.90;;;2.45;;
59040;SDS011;44825;53.200;6.448;2023-06-05T09:12:02;4.55;;;2.70;;
59040;SDS011;44825;53.200;6.448;2023-06-05T09:14:28;5.40;;;2.65;;
59040;SDS011;44825;53.200;6.448;2023-06-05T09:16:56;7.43;;;2.58;;
59040;SDS011;44825;53.200;6.448;2023-06-05T09:19:22;8.57;;;2.60;;
59040;SDS011;44825;53.200;6.448;2023-06-05T09:21:52;4.32;;;2.40;;
59040;SDS011;44825;53.200;6.448;2023-06-05T09:24:19;6.45;;;2.63;;
59040;SDS011;44825;53.200;6.448;2023-06-05T09:26:48;4.75;;;2.35;;
59040;SDS011;44825;53.200;6.448;2023-06-05T09:32:01;7.72;;;2.55;;
59040;SDS011;44825;53.200;6.448;2023-06-05T09:34:28;5.82;;;2.80;;
59040;SDS011;44825;53.200;6.448;2023-06-05T09:36:55;5.78;;;2.45;;
59040;SDS011;44825;53.200;6.448;2023-06-05T09:39:22;5.30;;;2.63;;
59040;SDS011;44825;53.200;6.448;2023-06-05T09:41:50;5.10;;;2.35;;
59040;SDS011;44825;53.200;6.448;2023-06-05T09:44:17;7.28;;;2.80;;
59040;SDS011;44825;53.200;6.448;2023-06-05T09:46:57;6.10;;;2.80;;
59040;SDS011;44825;53.200;6.448;2023-06-05T09:49:30;4.75;;;2.45;;
59040;SDS011;44825;53.200;6.448;2023-06-05T09:51:57;5.25;;;2.28;;
59040;SDS011;44825;53.200;6.448;2023-06-05T09:54:27;4.05;;;1.98;;
59040;SDS011;44825;53.200;6.448;2023-06-05T09:57:00;4.15;;;1.85;;
59040;SDS011;44825;53.200;6.448;2023-06-05T09:59:30;16.40;;;2.67;;
59040;SDS011;44825;53.200;6.448;2023-06-05T10:01:59;4.78;;;2.15;;
59040;SDS011;44825;53.200;6.448;2023-06-05T10:04:27;6.82;;;2.33;;
59040;SDS011;44825;53.200;6.448;2023-06-05T10:06:54;5.05;;;2.15;;
59040;SDS011;44825;53.200;6.448;2023-06-05T10:09:21;5.07;;;2.50;;
59040;SDS011;44825;53.200;6.448;2023-06-05T10:11:50;4.88;;;2.35;;
59040;SDS011;44825;53.200;6.448;2023-06-05T10:14:16;5.75;;;2.72;;
59040;SDS011;44825;53.200;6.448;2023-06-05T10:16:43;4.60;;;2.47;;
59040;SDS011;44825;53.200;6.448;2023-06-05T10:19:11;3.95;;;2.20;;
59040;SDS011;44825;53.200;6.448;2023-06-05T10:21:37;5.47;;;2.72;;
59040;SDS011;44825;53.200;6.448;2023-06-05T10:24:09;5.20;;;2.85;;
59040;SDS011;44825;53.200;6.448;2023-06-05T10:31:58;4.22;;;2.33;;
59040;SDS011;44825;53.200;6.448;2023-06-05T10:34:44;4.03;;;2.30;;
59040;SDS011;44825;53.200;6.448;2023-06-05T10:39:58;5.47;;;2.70;;
59040;SDS011;44825;53.200;6.448;2023-06-05T10:42:27;5.05;;;2.35;;
59040;SDS011;44825;53.200;6.448;2023-06-05T10:44:54;4.90;;;2.30;;
59040;SDS011;44825;53.200;6.448;2023-06-05T10:48:06;7.80;;;2.35;;
59040;SDS011;44825;53.200;6.448;2023-06-05T10:52:46;3.92;;;2.25;;
59040;SDS011;44825;53.200;6.448;2023-06-05T10:55:12;4.57;;;2.30;;
59040;SDS011;44825;53.200;6.448;2023-06-05T11:00:26;5.22;;;2.47;;
59040;SDS011;44825;53.200;6.448;2023-06-05T11:02:53;4.97;;;2.08;;
59040;SDS011;44825;53.200;6.448;2023-06-05T11:05:19;5.03;;;2.17;;
59040;SDS011;44825;53.200;6.448;2023-06-05T11:07:45;3.97;;;2.10;;
59040;SDS011;44825;53.200;6.448;2023-06-05T11:17:38;4.03;;;2.05;;
59040;SDS011;44825;53.200;6.448;2023-06-05T11:20:05;3.95;;;1.90;;
59040;SDS011;44825;53.200;6.448;2023-06-05T11:22:54;4.30;;;2.38;;
59040;SDS011;44825;53.200;6.448;2023-06-05T11:27:59;3.95;;;2.03;;
59040;SDS011;44825;53.200;6.448;2023-06-05T11:30:29;4.38;;;1.90;;
59040;SDS011;44825;53.200;6.448;2023-06-05T11:33:07;5.10;;;2.15;;
59040;SDS011;44825;53.200;6.448;2023-06-05T11:35:34;5.30;;;1.88;;
59040;SDS011;44825;53.200;6.448;2023-06-05T11:38:07;5.90;;;2.17;;
59040;SDS011;44825;53.200;6.448;2023-06-05T11:40:34;5.05;;;2.95;;
59040;SDS011;44825;53.200;6.448;2023-06-05T11:43:04;6.68;;;2.38;;
59040;SDS011;44825;53.200;6.448;2023-06-05T11:45:34;5.22;;;2.03;;
59040;SDS011;44825;53.200;6.448;2023-06-05T11:48:19;4.65;;;2.05;;
59040;SDS011;44825;53.200;6.448;2023-06-05T11:53:17;4.43;;;2.13;;
59040;SDS011;44825;53.200;6.448;2023-06-05T11:55:43;4.22;;;2.40;;
59040;SDS011;44825;53.200;6.448;2023-06-05T12:00:47;4.53;;;2.15;;
59040;SDS011;44825;53.200;6.448;2023-06-05T12:03:17;5.15;;;1.98;;
59040;SDS011;44825;53.200;6.448;2023-06-05T12:05:44;3.30;;;1.98;;
59040;SDS011;44825;53.200;6.448;2023-06-05T12:08:23;4.03;;;2.15;;
59040;SDS011;44825;53.200;6.448;2023-06-05T12:10:58;12.90;;;3.63;;
59040;SDS011;44825;53.200;6.448;2023-06-05T12:16:09;4.10;;;2.33;;
59040;SDS011;44825;53.200;6.448;2023-06-05T12:18:35;5.60;;;2.05;;
59040;SDS011;44825;53.200;6.448;2023-06-05T12:21:01;5.68;;;2.40;;
59040;SDS011;44825;53.200;6.448;2023-06-05T12:23:28;5.15;;;2.20;;
59040;SDS011;44825;53.200;6.448;2023-06-05T12:25:58;5.10;;;2.72;;
59040;SDS011;44825;53.200;6.448;2023-06-05T12:28:25;7.10;;;2.30;;
59040;SDS011;44825;53.200;6.448;2023-06-05T12:30:52;4.05;;;2.25;;
59040;SDS011;44825;53.200;6.448;2023-06-05T12:33:18;14.45;;;3.13;;
59040;SDS011;44825;53.200;6.448;2023-06-05T12:35:45;4.63;;;2.45;;
59040;SDS011;44825;53.200;6.448;2023-06-05T12:38:11;4.65;;;2.30;;
59040;SDS011;44825;53.200;6.448;2023-06-05T12:40:37;5.93;;;2.50;;
59040;SDS011;44825;53.200;6.448;2023-06-05T12:43:14;5.68;;;2.47;;
59040;SDS011;44825;53.200;6.448;2023-06-05T12:45:42;5.65;;;2.95;;
59040;SDS011;44825;53.200;6.448;2023-06-05T12:48:08;6.25;;;3.13;;
59040;SDS011;44825;53.200;6.448;2023-06-05T12:50:35;6.63;;;3.03;;
59040;SDS011;44825;53.200;6.448;2023-06-05T12:53:02;5.00;;;2.83;;
59040;SDS011;44825;53.200;6.448;2023-06-05T12:55:28;8.32;;;3.00;;
59040;SDS011;44825;53.200;6.448;2023-06-05T12:57:54;5.20;;;2.88;;
59040;SDS011;44825;53.200;6.448;2023-06-05T13:00:20;5.93;;;3.30;;
59040;SDS011;44825;53.200;6.448;2023-06-05T13:02:47;6.05;;;3.38;;
59040;SDS011;44825;53.200;6.448;2023-06-05T13:05:16;7.03;;;3.17;;
59040;SDS011;44825;53.200;6.448;2023-06-05T13:07:42;5.30;;;3.05;;
59040;SDS011;44825;53.200;6.448;2023-06-05T13:10:08;5.95;;;3.28;;
59040;SDS011;44825;53.200;6.448;2023-06-05T13:12:36;6.20;;;2.97;;
59040;SDS011;44825;53.200;6.448;2023-06-05T13:15:02;5.93;;;3.25;;
59040;SDS011;44825;53.200;6.448;2023-06-05T13:17:31;4.75;;;3.08;;
59040;SDS011;44825;53.200;6.448;2023-06-05T13:20:00;7.18;;;3.67;;
59040;SDS011;44825;53.200;6.448;2023-06-05T13:22:28;11.32;;;4.60;;
59040;SDS011;44825;53.200;6.448;2023-06-05T13:24:55;6.38;;;3.65;;
59040;SDS011;44825;53.200;6.448;2023-06-05T13:27:21;7.53;;;3.40;;
59040;SDS011;44825;53.200;6.448;2023-06-05T13:29:47;6.40;;;3.30;;
59040;SDS011;44825;53.200;6.448;2023-06-05T13:32:13;6.32;;;3.47;;
59040;SDS011;44825;53.200;6.448;2023-06-05T13:34:39;7.03;;;3.88;;
59040;SDS011;44825;53.200;6.448;2023-06-05T13:37:05;7.18;;;3.80;;
59040;SDS011;44825;53.200;6.448;2023-06-05T13:39:31;5.60;;;3.28;;
59040;SDS011;44825;53.200;6.448;2023-06-05T13:41:57;5.97;;;3.40;;
59040;SDS011;44825;53.200;6.448;2023-06-05T13:44:23;5.50;;;3.38;;
59040;SDS011;44825;53.200;6.448;2023-06-05T13:46:49;6.97;;;3.13;;
59040;SDS011;44825;53.200;6.448;2023-06-05T13:49:16;6.13;;;3.83;;
59040;SDS011;44825;53.200;6.448;2023-06-05T13:51:42;7.40;;;3.33;;
59040;SDS011;44825;53.200;6.448;2023-06-05T13:54:08;7.10;;;3.92;;
59040;SDS011;44825;53.200;6.448;2023-06-05T13:56:34;6.85;;;3.55;;
59040;SDS011;44825;53.200;6.448;2023-06-05T13:59:00;7.72;;;3.67;;
59040;SDS011;44825;53.200;6.448;2023-06-05T14:01:26;7.32;;;3.97;;
59040;SDS011;44825;53.200;6.448;2023-06-05T14:03:52;7.57;;;3.83;;
59040;SDS011;44825;53.200;6.448;2023-06-05T14:06:18;9.10;;;3.90;;
59040;SDS011;44825;53.200;6.448;2023-06-05T14:08:45;8.07;;;3.55;;
59040;SDS011;44825;53.200;6.448;2023-06-05T14:11:11;6.30;;;3.70;;
59040;SDS011;44825;53.200;6.448;2023-06-05T14:13:37;6.60;;;3.65;;
59040;SDS011;44825;53.200;6.448;2023-06-05T14:16:03;7.13;;;3.92;;
59040;SDS011;44825;53.200;6.448;2023-06-05T14:18:29;6.45;;;3.40;;
59040;SDS011;44825;53.200;6.448;2023-06-05T14:20:56;5.40;;;3.47;;
59040;SDS011;44825;53.200;6.448;2023-06-05T14:23:22;7.35;;;3.83;;
59040;SDS011;44825;53.200;6.448;2023-06-05T14:25:49;10.27;;;4.22;;
59040;SDS011;44825;53.200;6.448;2023-06-05T14:28:16;5.95;;;3.50;;
59040;SDS011;44825;53.200;6.448;2023-06-05T14:30:44;6.88;;;3.58;;
59040;SDS011;44825;53.200;6.448;2023-06-05T14:33:10;6.80;;;3.42;;
59040;SDS011;44825;53.200;6.448;2023-06-05T14:35:36;7.60;;;4.22;;
59040;SDS011;44825;53.200;6.448;2023-06-05T14:38:02;6.10;;;3.38;;
59040;SDS011;44825;53.200;6.448;2023-06-05T14:40:28;6.80;;;3.83;;
59040;SDS011;44825;53.200;6.448;2023-06-05T14:42:56;5.93;;;3.30;;
59040;SDS011;44825;53.200;6.448;2023-06-05T14:45:22;9.05;;;3.63;;
59040;SDS011;44825;53.200;6.448;2023-06-05T14:47:48;6.93;;;3.88;;
59040;SDS011;44825;53.200;6.448;2023-06-05T14:50:15;7.95;;;3.50;;
59040;SDS011;44825;53.200;6.448;2023-06-05T14:52:42;7.60;;;4.20;;
59040;SDS011;44825;53.200;6.448;2023-06-05T14:55:08;9.05;;;3.47;;
59040;SDS011;44825;53.200;6.448;2023-06-05T14:57:35;7.55;;;3.33;;
59040;SDS011;44825;53.200;6.448;2023-06-05T15:00:02;6.82;;;3.40;;
59040;SDS011;44825;53.200;6.448;2023-06-05T15:02:30;5.80;;;3.05;;
59040;SDS011;44825;53.200;6.448;2023-06-05T15:04:56;7.05;;;4.25;;
59040;SDS011;44825;53.200;6.448;2023-06-05T15:07:23;7.80;;;3.55;;
59040;SDS011;44825;53.200;6.448;2023-06-05T15:09:50;6.05;;;3.30;;
59040;SDS011;44825;53.200;6.448;2023-06-05T15:12:19;6.57;;;3.00;;
59040;SDS011;44825;53.200;6.448;2023-06-05T15:14:45;5.45;;;3.17;;
59040;SDS011;44825;53.200;6.448;2023-06-05T15:17:11;6.82;;;3.80;;
59040;SDS011;44825;53.200;6.448;2023-06-05T15:19:37;10.32;;;4.80;;
59040;SDS011;44825;53.200;6.448;2023-06-05T15:22:03;10.93;;;4.60;;
59040;SDS011;44825;53.200;6.448;2023-06-05T15:24:29;8.82;;;4.50;;